This is the latest recevied weather packets stored in our database for station/object DG3RAP-11. If no packets are shown the sender has not sent any weather packets the latest 10 day(s).
| Time | Temp. | Humidity | Pressure | Rain* | Wind** | Luminosity | Snow |
|---|---|---|---|---|---|---|---|
| 1777712043 | 18.33° C | 45% | 1022.9 hPa | 0 mm | - | - | - |
| 1777711503 | 18.33° C | 46% | 1023 hPa | 0 mm | - | - | - |
| 1777710963 | 17.22° C | 49% | 1023.3 hPa | 0 mm | - | - | - |
| 1777710423 | 17.78° C | 47% | 1023.1 hPa | 0 mm | - | - | - |
| 1777709883 | 16.67° C | 48% | 1023.2 hPa | 0 mm | - | - | - |
| 1777709343 | 17.22° C | 47% | 1023.3 hPa | 0 mm | - | - | - |
| 1777708803 | 16.67° C | 49% | 1023.4 hPa | 0 mm | - | - | - |
| 1777708443 | 15.56° C | 53% | 1023.2 hPa | 0 mm | - | - | - |
| 1777707363 | 15.56° C | 52% | 1023.6 hPa | 0 mm | - | - | - |
| 1777706823 | 15° C | 54% | 1023.1 hPa | 0 mm | - | - | - |
| 1777706283 | 15.56° C | 53% | 1023.4 hPa | 0 mm | - | - | - |
| 1777705743 | 14.44° C | 55% | 1023.4 hPa | 0 mm | - | - | - |
| 1777705203 | 13.89° C | 55% | 1023.4 hPa | 0 mm | - | - | - |
| 1777704843 | 14.44° C | 53% | 1023.5 hPa | 0 mm | - | - | - |
| 1777704303 | 13.89° C | 54% | 1023.6 hPa | 0 mm | - | - | - |
| 1777703763 | 13.89° C | 54% | 1023.4 hPa | 0 mm | - | - | - |
| 1777703223 | 13.33° C | 57% | 1023.2 hPa | 0 mm | - | - | - |
| 1777702683 | 12.78° C | 56% | 1023.4 hPa | 0 mm | - | - | - |
| 1777702143 | 13.33° C | 55% | 1023.5 hPa | 0 mm | - | - | - |
| 1777701603 | 13.33° C | 57% | 1023.5 hPa | 0 mm | - | - | - |
| 1777701243 | 12.22° C | 58% | 1023.5 hPa | 0 mm | - | - | - |
| 1777700704 | 10.56° C | 69% | 1023.6 hPa | 0 mm | - | - | - |
| 1777700163 | 8.33° C | 75% | 1023.6 hPa | 0 mm | - | - | - |
| 1777699623 | 8.89° C | 71% | 1023.6 hPa | 0 mm | - | - | - |
| 1777699083 | 8.89° C | 71% | 1023.3 hPa | 0 mm | - | - | - |
* Rain latest hour (hover to see other rain measurements)
** Current wind speed in m/s (hover to see current wind gust speed)